sensor_id;sensor_type;location;lat;lon;timestamp;temperature;humidity
40323;DHT22;26030;51.164;17.100;2022-10-10T00:04:02;21.80;69.30
40323;DHT22;26030;51.164;17.100;2022-10-10T00:09:07;21.80;70.00
40323;DHT22;26030;51.164;17.100;2022-10-10T00:14:11;21.80;69.50
40323;DHT22;26030;51.164;17.100;2022-10-10T00:19:15;21.70;69.50
40323;DHT22;26030;51.164;17.100;2022-10-10T00:24:19;21.80;69.60
40323;DHT22;26030;51.164;17.100;2022-10-10T00:29:22;21.70;69.60
40323;DHT22;26030;51.164;17.100;2022-10-10T00:34:26;21.70;69.60
40323;DHT22;26030;51.164;17.100;2022-10-10T00:39:30;21.70;69.80
40323;DHT22;26030;51.164;17.100;2022-10-10T00:44:35;21.70;69.90
40323;DHT22;26030;51.164;17.100;2022-10-10T00:49:40;21.60;69.40
40323;DHT22;26030;51.164;17.100;2022-10-10T00:54:49;21.60;69.40
40323;DHT22;26030;51.164;17.100;2022-10-10T00:59:52;21.60;69.40
40323;DHT22;26030;51.164;17.100;2022-10-10T01:04:59;21.60;69.60
40323;DHT22;26030;51.164;17.100;2022-10-10T01:10:07;21.60;69.40
40323;DHT22;26030;51.164;17.100;2022-10-10T01:30:55;21.50;69.40
40323;DHT22;26030;51.164;17.100;2022-10-10T01:41:31;21.50;69.30
40323;DHT22;26030;51.164;17.100;2022-10-10T01:46:39;21.50;69.40
40323;DHT22;26030;51.164;17.100;2022-10-10T01:51:56;21.50;69.40
40323;DHT22;26030;51.164;17.100;2022-10-10T02:07:52;21.40;69.60
40323;DHT22;26030;51.164;17.100;2022-10-10T02:13:00;21.40;69.30
40323;DHT22;26030;51.164;17.100;2022-10-10T02:18:07;21.40;69.30
40323;DHT22;26030;51.164;17.100;2022-10-10T02:23:17;21.40;69.30
40323;DHT22;26030;51.164;17.100;2022-10-10T02:28:23;21.30;69.40
40323;DHT22;26030;51.164;17.100;2022-10-10T02:33:34;21.30;69.20
40323;DHT22;26030;51.164;17.100;2022-10-10T02:38:46;21.40;69.30
40323;DHT22;26030;51.164;17.100;2022-10-10T02:43:52;21.30;69.30
40323;DHT22;26030;51.164;17.100;2022-10-10T02:48:57;21.30;69.20
40323;DHT22;26030;51.164;17.100;2022-10-10T02:54:01;21.30;69.30
40323;DHT22;26030;51.164;17.100;2022-10-10T02:59:07;21.30;69.20
40323;DHT22;26030;51.164;17.100;2022-10-10T03:04:11;21.30;69.30
40323;DHT22;26030;51.164;17.100;2022-10-10T03:09:21;21.20;69.10
40323;DHT22;26030;51.164;17.100;2022-10-10T03:14:28;21.20;69.20
40323;DHT22;26030;51.164;17.100;2022-10-10T03:19:40;21.20;69.30
40323;DHT22;26030;51.164;17.100;2022-10-10T03:24:56;21.20;69.20
40323;DHT22;26030;51.164;17.100;2022-10-10T03:30:13;21.20;69.10
40323;DHT22;26030;51.164;17.100;2022-10-10T03:35:16;21.20;69.10
40323;DHT22;26030;51.164;17.100;2022-10-10T03:40:25;21.20;69.10
40323;DHT22;26030;51.164;17.100;2022-10-10T03:45:51;21.10;69.10
40323;DHT22;26030;51.164;17.100;2022-10-10T03:50:58;21.10;69.20
40323;DHT22;26030;51.164;17.100;2022-10-10T03:56:09;21.10;69.10
40323;DHT22;26030;51.164;17.100;2022-10-10T04:01:13;21.10;69.30
40323;DHT22;26030;51.164;17.100;2022-10-10T04:06:18;21.10;69.30
40323;DHT22;26030;51.164;17.100;2022-10-10T04:11:22;21.10;69.70
40323;DHT22;26030;51.164;17.100;2022-10-10T04:16:25;21.00;69.20
40323;DHT22;26030;51.164;17.100;2022-10-10T04:21:29;21.00;69.20
40323;DHT22;26030;51.164;17.100;2022-10-10T04:26:32;21.00;69.60
40323;DHT22;26030;51.164;17.100;2022-10-10T04:31:37;21.00;69.60
40323;DHT22;26030;51.164;17.100;2022-10-10T04:36:40;21.00;69.30
40323;DHT22;26030;51.164;17.100;2022-10-10T04:41:45;21.00;69.30
40323;DHT22;26030;51.164;17.100;2022-10-10T04:46:52;21.00;69.30
40323;DHT22;26030;51.164;17.100;2022-10-10T04:51:55;20.90;69.30
40323;DHT22;26030;51.164;17.100;2022-10-10T04:56:59;21.00;69.40
40323;DHT22;26030;51.164;17.100;2022-10-10T05:02:02;20.90;68.90
40323;DHT22;26030;51.164;17.100;2022-10-10T05:07:06;20.90;69.30
40323;DHT22;26030;51.164;17.100;2022-10-10T05:12:09;20.90;69.40
40323;DHT22;26030;51.164;17.100;2022-10-10T05:17:13;20.90;69.30
40323;DHT22;26030;51.164;17.100;2022-10-10T05:22:16;21.10;68.80
40323;DHT22;26030;51.164;17.100;2022-10-10T05:27:20;21.40;67.80
40323;DHT22;26030;51.164;17.100;2022-10-10T05:32:23;21.70;67.40
40323;DHT22;26030;51.164;17.100;2022-10-10T05:37:27;21.90;66.70
40323;DHT22;26030;51.164;17.100;2022-10-10T05:42:32;22.00;66.90
40323;DHT22;26030;51.164;17.100;2022-10-10T05:47:36;22.00;66.80
40323;DHT22;26030;51.164;17.100;2022-10-10T05:52:39;22.00;66.70
40323;DHT22;26030;51.164;17.100;2022-10-10T05:57:43;22.00;67.10
40323;DHT22;26030;51.164;17.100;2022-10-10T06:02:46;22.00;67.60
40323;DHT22;26030;51.164;17.100;2022-10-10T06:07:51;21.90;67.70
40323;DHT22;26030;51.164;17.100;2022-10-10T06:13:14;22.00;67.60
40323;DHT22;26030;51.164;17.100;2022-10-10T06:18:25;21.90;68.10
40323;DHT22;26030;51.164;17.100;2022-10-10T06:23:29;22.00;68.30
40323;DHT22;26030;51.164;17.100;2022-10-10T06:28:34;22.00;68.10
40323;DHT22;26030;51.164;17.100;2022-10-10T06:33:42;21.90;68.40
40323;DHT22;26030;51.164;17.100;2022-10-10T06:38:48;21.90;68.50
40323;DHT22;26030;51.164;17.100;2022-10-10T06:43:52;21.80;68.40
40323;DHT22;26030;51.164;17.100;2022-10-10T06:48:57;21.80;68.60
40323;DHT22;26030;51.164;17.100;2022-10-10T06:54:02;21.80;68.50
40323;DHT22;26030;51.164;17.100;2022-10-10T06:59:09;21.80;68.40
40323;DHT22;26030;51.164;17.100;2022-10-10T07:04:15;21.80;68.10
40323;DHT22;26030;51.164;17.100;2022-10-10T07:09:21;21.70;67.80
40323;DHT22;26030;51.164;17.100;2022-10-10T07:14:25;21.60;68.40
40323;DHT22;26030;51.164;17.100;2022-10-10T07:19:30;21.60;68.10
40323;DHT22;26030;51.164;17.100;2022-10-10T07:24:34;21.60;68.10
40323;DHT22;26030;51.164;17.100;2022-10-10T07:29:45;21.60;67.90
40323;DHT22;26030;51.164;17.100;2022-10-10T07:34:53;21.60;67.60
40323;DHT22;26030;51.164;17.100;2022-10-10T07:40:05;21.50;68.10
40323;DHT22;26030;51.164;17.100;2022-10-10T07:45:11;21.50;68.70
40323;DHT22;26030;51.164;17.100;2022-10-10T07:50:16;21.60;68.00
40323;DHT22;26030;51.164;17.100;2022-10-10T07:55:20;21.60;67.80
40323;DHT22;26030;51.164;17.100;2022-10-10T08:00:27;21.60;67.70
40323;DHT22;26030;51.164;17.100;2022-10-10T08:05:32;21.60;67.50
40323;DHT22;26030;51.164;17.100;2022-10-10T08:10:37;21.60;67.60
40323;DHT22;26030;51.164;17.100;2022-10-10T08:15:49;21.70;67.50
40323;DHT22;26030;51.164;17.100;2022-10-10T08:21:01;21.70;67.60
40323;DHT22;26030;51.164;17.100;2022-10-10T08:26:11;21.80;67.10
40323;DHT22;26030;51.164;17.100;2022-10-10T08:31:22;21.80;66.90
40323;DHT22;26030;51.164;17.100;2022-10-10T08:36:26;21.80;67.20
40323;DHT22;26030;51.164;17.100;2022-10-10T08:41:54;21.80;66.50
40323;DHT22;26030;51.164;17.100;2022-10-10T08:47:19;21.90;66.50
40323;DHT22;26030;51.164;17.100;2022-10-10T08:52:34;21.90;66.70
40323;DHT22;26030;51.164;17.100;2022-10-10T08:57:54;21.90;66.30
40323;DHT22;26030;51.164;17.100;2022-10-10T09:03:01;22.00;66.10
40323;DHT22;26030;51.164;17.100;2022-10-10T09:19:03;22.00;66.20
40323;DHT22;26030;51.164;17.100;2022-10-10T09:24:24;22.00;66.60
40323;DHT22;26030;51.164;17.100;2022-10-10T09:35:21;22.10;66.70
40323;DHT22;26030;51.164;17.100;2022-10-10T09:40:30;22.10;66.50
40323;DHT22;26030;51.164;17.100;2022-10-10T09:45:40;22.20;66.50
40323;DHT22;26030;51.164;17.100;2022-10-10T09:50:57;22.20;66.20
40323;DHT22;26030;51.164;17.100;2022-10-10T09:56:03;22.20;65.40
40323;DHT22;26030;51.164;17.100;2022-10-10T10:01:18;22.30;65.90
40323;DHT22;26030;51.164;17.100;2022-10-10T10:06:24;22.40;65.40
40323;DHT22;26030;51.164;17.100;2022-10-10T10:11:35;22.30;64.90
40323;DHT22;26030;51.164;17.100;2022-10-10T10:16:42;22.40;64.90
40323;DHT22;26030;51.164;17.100;2022-10-10T10:21:47;22.40;65.40
40323;DHT22;26030;51.164;17.100;2022-10-10T10:26:52;22.50;65.20
40323;DHT22;26030;51.164;17.100;2022-10-10T10:31:59;22.50;65.30
40323;DHT22;26030;51.164;17.100;2022-10-10T11:04:00;22.50;65.10
40323;DHT22;26030;51.164;17.100;2022-10-10T11:09:35;22.50;65.20
40323;DHT22;26030;51.164;17.100;2022-10-10T11:15:00;22.50;65.40
40323;DHT22;26030;51.164;17.100;2022-10-10T11:20:23;22.60;68.10
40323;DHT22;26030;51.164;17.100;2022-10-10T11:25:40;22.60;67.60
40323;DHT22;26030;51.164;17.100;2022-10-10T11:30:53;22.60;67.50
40323;DHT22;26030;51.164;17.100;2022-10-10T11:36:14;22.60;66.90
40323;DHT22;26030;51.164;17.100;2022-10-10T11:41:27;22.60;66.90
40323;DHT22;26030;51.164;17.100;2022-10-10T11:57:20;22.70;66.10
40323;DHT22;26030;51.164;17.100;2022-10-10T12:02:37;22.70;65.90
40323;DHT22;26030;51.164;17.100;2022-10-10T12:23:42;22.80;65.60
40323;DHT22;26030;51.164;17.100;2022-10-10T12:34:14;22.80;65.60
40323;DHT22;26030;51.164;17.100;2022-10-10T12:39:58;22.70;65.50
40323;DHT22;26030;51.164;17.100;2022-10-10T12:50:35;22.80;65.40
40323;DHT22;26030;51.164;17.100;2022-10-10T12:55:42;22.80;64.90
40323;DHT22;26030;51.164;17.100;2022-10-10T13:00:51;22.80;64.60
40323;DHT22;26030;51.164;17.100;2022-10-10T13:06:00;22.80;65.00
40323;DHT22;26030;51.164;17.100;2022-10-10T13:11:09;22.80;64.70
40323;DHT22;26030;51.164;17.100;2022-10-10T13:16:17;22.70;65.10
40323;DHT22;26030;51.164;17.100;2022-10-10T13:21:24;22.70;65.50
40323;DHT22;26030;51.164;17.100;2022-10-10T13:26:32;22.80;65.70
40323;DHT22;26030;51.164;17.100;2022-10-10T13:31:42;22.80;65.90
40323;DHT22;26030;51.164;17.100;2022-10-10T13:36:46;22.80;66.10
40323;DHT22;26030;51.164;17.100;2022-10-10T13:41:50;22.70;66.70
40323;DHT22;26030;51.164;17.100;2022-10-10T13:46:55;22.70;66.50
40323;DHT22;26030;51.164;17.100;2022-10-10T13:52:19;22.70;66.80
40323;DHT22;26030;51.164;17.100;2022-10-10T13:57:25;22.60;66.90
40323;DHT22;26030;51.164;17.100;2022-10-10T14:02:30;22.60;66.90
40323;DHT22;26030;51.164;17.100;2022-10-10T14:07:36;22.60;67.10
40323;DHT22;26030;51.164;17.100;2022-10-10T14:12:41;22.50;67.30
40323;DHT22;26030;51.164;17.100;2022-10-10T14:17:50;22.60;68.40
40323;DHT22;26030;51.164;17.100;2022-10-10T14:22:54;22.50;68.10
40323;DHT22;26030;51.164;17.100;2022-10-10T14:27:57;22.60;68.20
40323;DHT22;26030;51.164;17.100;2022-10-10T14:33:01;22.50;68.60
40323;DHT22;26030;51.164;17.100;2022-10-10T14:38:04;22.60;68.70
40323;DHT22;26030;51.164;17.100;2022-10-10T14:43:08;22.50;68.90
40323;DHT22;26030;51.164;17.100;2022-10-10T14:48:12;22.60;69.40
40323;DHT22;26030;51.164;17.100;2022-10-10T14:53:16;22.60;69.20
40323;DHT22;26030;51.164;17.100;2022-10-10T14:58:20;22.60;69.50
40323;DHT22;26030;51.164;17.100;2022-10-10T15:03:28;22.60;69.80
40323;DHT22;26030;51.164;17.100;2022-10-10T15:08:33;22.60;69.90
40323;DHT22;26030;51.164;17.100;2022-10-10T15:13:37;22.60;70.40
40323;DHT22;26030;51.164;17.100;2022-10-10T15:18:50;22.60;70.80
40323;DHT22;26030;51.164;17.100;2022-10-10T15:24:02;22.60;71.40
40323;DHT22;26030;51.164;17.100;2022-10-10T15:29:11;22.70;72.00
40323;DHT22;26030;51.164;17.100;2022-10-10T15:34:18;22.70;71.70
40323;DHT22;26030;51.164;17.100;2022-10-10T15:39:34;22.70;71.80
40323;DHT22;26030;51.164;17.100;2022-10-10T15:44:54;22.70;72.60
40323;DHT22;26030;51.164;17.100;2022-10-10T15:50:04;22.70;72.50
40323;DHT22;26030;51.164;17.100;2022-10-10T15:55:15;22.70;72.60
40323;DHT22;26030;51.164;17.100;2022-10-10T16:00:22;22.70;72.40
40323;DHT22;26030;51.164;17.100;2022-10-10T16:05:29;22.70;73.10
40323;DHT22;26030;51.164;17.100;2022-10-10T16:10:38;22.80;72.50
40323;DHT22;26030;51.164;17.100;2022-10-10T16:15:56;22.70;72.30
40323;DHT22;26030;51.164;17.100;2022-10-10T16:21:03;22.70;73.40
40323;DHT22;26030;51.164;17.100;2022-10-10T16:26:10;22.70;72.90
40323;DHT22;26030;51.164;17.100;2022-10-10T16:31:17;22.80;72.70
40323;DHT22;26030;51.164;17.100;2022-10-10T16:36:26;22.70;72.60
40323;DHT22;26030;51.164;17.100;2022-10-10T16:41:35;22.80;72.60
40323;DHT22;26030;51.164;17.100;2022-10-10T16:46:51;22.70;72.60
40323;DHT22;26030;51.164;17.100;2022-10-10T16:51:56;22.80;71.80
40323;DHT22;26030;51.164;17.100;2022-10-10T16:57:00;23.00;72.50
40323;DHT22;26030;51.164;17.100;2022-10-10T17:02:03;22.80;71.30
40323;DHT22;26030;51.164;17.100;2022-10-10T17:07:07;22.70;71.10
40323;DHT22;26030;51.164;17.100;2022-10-10T17:12:11;22.70;71.30
40323;DHT22;26030;51.164;17.100;2022-10-10T17:17:14;22.70;70.90
40323;DHT22;26030;51.164;17.100;2022-10-10T17:22:19;22.60;71.20
40323;DHT22;26030;51.164;17.100;2022-10-10T17:27:23;22.70;70.80
40323;DHT22;26030;51.164;17.100;2022-10-10T17:32:26;22.60;70.90
40323;DHT22;26030;51.164;17.100;2022-10-10T17:37:30;22.60;71.00
40323;DHT22;26030;51.164;17.100;2022-10-10T17:42:36;22.60;71.00
40323;DHT22;26030;51.164;17.100;2022-10-10T17:47:40;22.60;71.00
40323;DHT22;26030;51.164;17.100;2022-10-10T17:52:43;22.60;71.20
40323;DHT22;26030;51.164;17.100;2022-10-10T17:57:48;22.60;71.30
40323;DHT22;26030;51.164;17.100;2022-10-10T18:02:57;22.60;71.60
40323;DHT22;26030;51.164;17.100;2022-10-10T18:08:11;22.50;71.30
40323;DHT22;26030;51.164;17.100;2022-10-10T18:13:17;22.50;71.40
40323;DHT22;26030;51.164;17.100;2022-10-10T18:18:21;22.50;71.20
40323;DHT22;26030;51.164;17.100;2022-10-10T18:23:25;22.50;71.50
40323;DHT22;26030;51.164;17.100;2022-10-10T18:28:30;22.50;71.80
40323;DHT22;26030;51.164;17.100;2022-10-10T18:33:36;22.50;71.50
40323;DHT22;26030;51.164;17.100;2022-10-10T18:39:01;22.50;71.90
40323;DHT22;26030;51.164;17.100;2022-10-10T18:44:12;22.40;71.50
40323;DHT22;26030;51.164;17.100;2022-10-10T18:49:22;22.50;71.60
40323;DHT22;26030;51.164;17.100;2022-10-10T18:54:30;22.40;71.20
40323;DHT22;26030;51.164;17.100;2022-10-10T18:59:35;22.40;71.80
40323;DHT22;26030;51.164;17.100;2022-10-10T19:04:40;22.40;72.00
40323;DHT22;26030;51.164;17.100;2022-10-10T19:09:46;22.40;71.80
40323;DHT22;26030;51.164;17.100;2022-10-10T19:14:49;22.40;71.10
40323;DHT22;26030;51.164;17.100;2022-10-10T19:19:56;22.40;71.30
40323;DHT22;26030;51.164;17.100;2022-10-10T19:25:06;22.30;71.40
40323;DHT22;26030;51.164;17.100;2022-10-10T19:30:13;22.30;71.60
40323;DHT22;26030;51.164;17.100;2022-10-10T19:35:17;22.30;71.40
40323;DHT22;26030;51.164;17.100;2022-10-10T19:40:21;22.30;72.10
40323;DHT22;26030;51.164;17.100;2022-10-10T19:45:28;22.30;71.20
40323;DHT22;26030;51.164;17.100;2022-10-10T19:50:42;22.30;71.30
40323;DHT22;26030;51.164;17.100;2022-10-10T19:56:03;22.30;72.20
40323;DHT22;26030;51.164;17.100;2022-10-10T20:01:22;22.30;72.50
40323;DHT22;26030;51.164;17.100;2022-10-10T20:06:33;22.20;72.80
40323;DHT22;26030;51.164;17.100;2022-10-10T20:11:44;22.20;72.40
40323;DHT22;26030;51.164;17.100;2022-10-10T20:16:52;22.20;72.30
40323;DHT22;26030;51.164;17.100;2022-10-10T20:22:04;22.20;72.60
40323;DHT22;26030;51.164;17.100;2022-10-10T20:27:21;22.20;72.00
40323;DHT22;26030;51.164;17.100;2022-10-10T20:32:44;22.20;72.50
40323;DHT22;26030;51.164;17.100;2022-10-10T20:38:05;22.20;72.40
40323;DHT22;26030;51.164;17.100;2022-10-10T20:43:39;22.20;72.40
40323;DHT22;26030;51.164;17.100;2022-10-10T20:48:47;22.10;72.40
40323;DHT22;26030;51.164;17.100;2022-10-10T20:54:02;22.10;72.80
40323;DHT22;26030;51.164;17.100;2022-10-10T20:59:22;22.10;72.30
40323;DHT22;26030;51.164;17.100;2022-10-10T21:04:29;22.00;72.60
40323;DHT22;26030;51.164;17.100;2022-10-10T21:09:35;22.00;72.10
40323;DHT22;26030;51.164;17.100;2022-10-10T21:14:48;22.00;72.40
40323;DHT22;26030;51.164;17.100;2022-10-10T21:19:52;22.10;72.10
40323;DHT22;26030;51.164;17.100;2022-10-10T21:24:55;22.10;75.20
40323;DHT22;26030;51.164;17.100;2022-10-10T21:29:59;22.10;75.50
40323;DHT22;26030;51.164;17.100;2022-10-10T21:35:11;22.20;75.20
40323;DHT22;26030;51.164;17.100;2022-10-10T21:40:15;22.20;74.80
40323;DHT22;26030;51.164;17.100;2022-10-10T21:45:32;22.20;74.80
40323;DHT22;26030;51.164;17.100;2022-10-10T21:50:40;22.10;74.00
40323;DHT22;26030;51.164;17.100;2022-10-10T21:56:01;22.20;74.40
40323;DHT22;26030;51.164;17.100;2022-10-10T22:01:09;22.20;74.10
40323;DHT22;26030;51.164;17.100;2022-10-10T22:06:22;22.20;74.60
40323;DHT22;26030;51.164;17.100;2022-10-10T22:11:28;22.10;74.40
40323;DHT22;26030;51.164;17.100;2022-10-10T22:16:33;22.10;74.50
40323;DHT22;26030;51.164;17.100;2022-10-10T22:21:38;22.10;74.20
40323;DHT22;26030;51.164;17.100;2022-10-10T22:26:42;22.10;74.30
40323;DHT22;26030;51.164;17.100;2022-10-10T22:31:47;22.10;74.20
40323;DHT22;26030;51.164;17.100;2022-10-10T22:36:52;22.10;74.30
40323;DHT22;26030;51.164;17.100;2022-10-10T22:41:57;22.10;75.00
40323;DHT22;26030;51.164;17.100;2022-10-10T22:47:02;22.00;74.50
40323;DHT22;26030;51.164;17.100;2022-10-10T22:52:07;22.10;74.50
40323;DHT22;26030;51.164;17.100;2022-10-10T22:57:14;22.10;74.50
40323;DHT22;26030;51.164;17.100;2022-10-10T23:02:18;22.10;74.50
40323;DHT22;26030;51.164;17.100;2022-10-10T23:07:22;22.10;74.20
40323;DHT22;26030;51.164;17.100;2022-10-10T23:12:26;22.10;75.10
40323;DHT22;26030;51.164;17.100;2022-10-10T23:17:30;22.10;74.80
40323;DHT22;26030;51.164;17.100;2022-10-10T23:22:37;22.10;74.60
40323;DHT22;26030;51.164;17.100;2022-10-10T23:27:42;22.10;74.80
40323;DHT22;26030;51.164;17.100;2022-10-10T23:32:46;22.10;74.00
40323;DHT22;26030;51.164;17.100;2022-10-10T23:37:50;22.10;73.90
40323;DHT22;26030;51.164;17.100;2022-10-10T23:42:53;22.00;73.80
40323;DHT22;26030;51.164;17.100;2022-10-10T23:47:57;22.00;73.80
40323;DHT22;26030;51.164;17.100;2022-10-10T23:53:00;22.00;73.80
40323;DHT22;26030;51.164;17.100;2022-10-10T23:58:05;21.90;73.70
